createdAt,value
2022-11-30T00:00:18.559Z,1002.03
2022-11-30T00:05:18.526Z,1002.04
2022-11-30T00:10:18.450Z,1002.07
2022-11-30T00:15:18.631Z,1002.07
2022-11-30T00:20:18.344Z,1002.05
2022-11-30T00:25:18.298Z,1002.11
2022-11-30T05:00:30.030Z,1002.26
2022-11-30T05:05:29.835Z,1002.37
2022-11-30T05:10:29.755Z,1002.42
2022-11-30T05:15:36.766Z,1002.47
2022-11-30T05:20:29.655Z,1002.47
2022-11-30T05:25:29.605Z,1002.43
2022-11-30T05:30:29.536Z,1002.46
2022-11-30T05:35:29.520Z,1002.49
2022-11-30T05:40:29.452Z,1002.50
2022-11-30T05:45:29.374Z,1002.49
2022-11-30T05:50:29.335Z,1002.54
2022-11-30T05:55:29.317Z,1002.52
2022-11-30T06:00:29.214Z,1002.60
2022-11-30T06:05:29.176Z,1002.58
2022-11-30T06:10:29.126Z,1002.59
2022-11-30T06:15:29.073Z,1002.54
2022-11-30T06:20:29.010Z,1002.53
2022-11-30T06:25:28.964Z,1002.56
2022-11-30T06:30:28.908Z,1002.56
2022-11-30T06:35:28.888Z,1002.53
2022-11-30T06:40:28.812Z,1002.62
2022-11-30T06:45:28.798Z,1002.58
2022-11-30T06:50:28.693Z,1002.66
2022-11-30T06:55:28.660Z,1002.72
2022-11-30T07:00:28.633Z,1002.74
2022-11-30T07:05:28.531Z,1002.76
2022-11-30T07:10:28.579Z,1002.79
2022-11-30T07:15:28.434Z,1002.82
2022-11-30T07:20:28.480Z,1002.84
2022-11-30T07:25:28.328Z,1003.02
2022-11-30T07:30:28.339Z,1003.01
2022-11-30T07:35:28.239Z,1003.06
2022-11-30T07:40:28.170Z,1003.07
2022-11-30T07:45:28.090Z,1003.18
2022-11-30T07:50:28.064Z,1003.23
2022-11-30T07:55:28.037Z,1003.22
2022-11-30T08:00:27.950Z,1003.27
2022-11-30T08:05:28.000Z,1003.34
2022-11-30T08:10:27.851Z,1003.36
2022-11-30T08:15:32.517Z,1003.43
2022-11-30T08:20:28.732Z,1003.45
2022-11-30T08:25:27.676Z,1003.41
2022-11-30T08:30:27.926Z,1003.46
2022-11-30T08:35:27.604Z,1003.46
2022-11-30T08:40:27.513Z,1003.40
2022-11-30T08:45:27.464Z,1003.45
2022-11-30T08:50:27.397Z,1003.58
2022-11-30T08:55:27.379Z,1003.62
2022-11-30T09:00:27.332Z,1003.67
2022-11-30T09:05:27.241Z,1003.68
2022-11-30T09:10:27.196Z,1003.72
2022-11-30T09:15:27.162Z,1003.78
2022-11-30T09:20:27.074Z,1003.77
2022-11-30T09:25:27.062Z,1003.76
2022-11-30T09:30:27.044Z,1003.82
2022-11-30T09:35:26.951Z,1003.84
2022-11-30T09:40:29.870Z,1003.88
2022-11-30T09:45:27.823Z,1003.77
2022-11-30T09:50:26.779Z,1003.80
2022-11-30T09:55:26.768Z,1003.78
2022-11-30T10:00:26.653Z,1003.76
2022-11-30T10:05:26.713Z,1003.84
2022-11-30T10:10:34.122Z,1003.77
2022-11-30T10:15:27.581Z,1003.76
2022-11-30T10:20:26.439Z,1003.77
2022-11-30T10:25:26.396Z,1003.77
2022-11-30T10:30:26.359Z,1003.69
2022-11-30T10:35:26.303Z,1003.67
2022-11-30T10:40:26.233Z,1003.73
2022-11-30T10:45:26.191Z,1003.72
2022-11-30T10:50:26.143Z,1003.58
2022-11-30T10:55:26.135Z,1003.61
2022-11-30T11:00:26.018Z,1003.67
2022-11-30T11:05:25.991Z,1003.58
2022-11-30T11:10:25.900Z,1003.64
2022-11-30T11:15:33.158Z,1003.64
2022-11-30T11:20:25.805Z,1003.58
2022-11-30T11:25:26.019Z,1003.60
2022-11-30T11:30:25.697Z,1003.54
2022-11-30T11:35:25.681Z,1003.54
2022-11-30T11:40:25.594Z,1003.57
2022-11-30T11:45:25.524Z,1003.53
2022-11-30T11:50:57.891Z,1003.59
2022-11-30T11:55:26.458Z,1003.64
2022-11-30T12:00:25.417Z,1003.63
2022-11-30T12:05:25.329Z,1003.68
2022-11-30T12:15:26.236Z,1003.69
2022-11-30T12:20:25.166Z,1003.76
2022-11-30T12:25:25.323Z,1003.73
2022-11-30T12:30:25.045Z,1003.75
2022-11-30T12:35:25.033Z,1003.74
2022-11-30T12:40:24.953Z,1003.68
2022-11-30T12:45:24.896Z,1003.69
2022-11-30T12:50:24.846Z,1003.78
2022-11-30T12:55:24.871Z,1003.73
2022-11-30T13:00:24.738Z,1003.76
2022-11-30T13:05:24.679Z,1003.79
2022-11-30T13:10:24.634Z,1003.84
2022-11-30T13:15:24.598Z,1003.79
2022-11-30T13:20:24.521Z,1003.80
2022-11-30T13:25:45.274Z,1003.77
2022-11-30T13:30:25.413Z,1003.80
2022-11-30T13:35:24.382Z,1003.75
2022-11-30T13:40:24.308Z,1003.77
2022-11-30T13:45:24.256Z,1003.77
2022-11-30T13:50:24.203Z,1003.74
2022-11-30T13:55:24.172Z,1003.76
2022-11-30T14:00:24.092Z,1003.77
2022-11-30T14:05:24.033Z,1003.81
2022-11-30T14:10:23.983Z,1003.87
2022-11-30T14:15:23.954Z,1003.91
2022-11-30T14:20:23.876Z,1003.93
2022-11-30T14:25:23.827Z,1004.08
2022-11-30T14:30:23.764Z,1004.01
2022-11-30T14:35:23.751Z,1004.03
2022-11-30T14:40:23.658Z,1004.03
2022-11-30T14:45:23.618Z,1004.08
2022-11-30T14:50:23.553Z,1004.09
2022-11-30T14:55:23.566Z,1004.09
2022-11-30T15:00:23.445Z,1004.13
2022-11-30T15:05:23.396Z,1004.17
2022-11-30T15:10:28.077Z,1004.14
2022-11-30T15:15:24.319Z,1004.08
2022-11-30T15:20:23.233Z,1004.03
2022-11-30T15:25:23.177Z,1004.10
2022-11-30T15:30:23.133Z,1004.08
2022-11-30T15:35:23.093Z,1004.17
2022-11-30T15:40:23.019Z,1004.26
2022-11-30T15:45:22.966Z,1004.33
2022-11-30T15:50:22.912Z,1004.21
2022-11-30T15:55:22.955Z,1004.28
2022-11-30T16:00:22.803Z,1004.31
2022-11-30T16:05:22.755Z,1004.38
2022-11-30T16:10:22.699Z,1004.38
2022-11-30T16:15:22.688Z,1004.45
2022-11-30T16:20:22.596Z,1004.45
2022-11-30T16:25:22.539Z,1004.47
2022-11-30T16:30:22.491Z,1004.53
2022-11-30T16:35:22.450Z,1004.49
2022-11-30T16:40:22.378Z,1004.48
2022-11-30T16:45:22.527Z,1004.50
2022-11-30T16:50:22.273Z,1004.52
2022-11-30T16:55:22.241Z,1004.60
2022-11-30T17:00:22.166Z,1004.63
2022-11-30T17:05:22.114Z,1004.67
2022-11-30T17:10:22.056Z,1004.62
2022-11-30T17:15:29.065Z,1004.76
2022-11-30T17:20:21.947Z,1004.73
2022-11-30T17:25:21.903Z,1004.73
2022-11-30T17:30:21.851Z,1004.71
2022-11-30T17:35:21.814Z,1004.73
2022-11-30T17:40:21.740Z,1004.81
2022-11-30T17:45:21.683Z,1004.83
2022-11-30T17:50:21.650Z,1004.93
2022-11-30T17:55:21.590Z,1004.95
2022-11-30T18:00:21.526Z,1005.02
2022-11-30T18:05:21.476Z,1005.05
2022-11-30T18:10:21.416Z,1005.05
2022-11-30T18:15:21.394Z,1005.16
2022-11-30T18:20:21.314Z,1005.14
2022-11-30T18:25:21.270Z,1005.22
2022-11-30T18:30:21.197Z,1005.20
2022-11-30T18:35:21.171Z,1005.20
2022-11-30T18:40:21.097Z,1005.16
2022-11-30T18:45:21.042Z,1005.16
2022-11-30T18:50:20.995Z,1005.14
2022-11-30T18:55:20.972Z,1005.24
2022-11-30T19:00:20.884Z,1005.26
2022-11-30T19:05:21.267Z,1005.28
2022-11-30T19:10:20.771Z,1005.32
2022-11-30T19:15:20.746Z,1005.29
2022-11-30T19:20:20.678Z,1005.37
2022-11-30T19:25:20.619Z,1005.36
2022-11-30T19:30:20.574Z,1005.36
2022-11-30T19:35:20.533Z,1005.34
2022-11-30T19:40:20.458Z,1005.30
2022-11-30T19:45:20.405Z,1005.37
2022-11-30T19:50:20.355Z,1005.41
2022-11-30T19:55:20.329Z,1005.42
2022-11-30T20:00:20.243Z,1005.55
2022-11-30T20:05:20.189Z,1005.52
2022-11-30T20:10:20.140Z,1005.52
2022-11-30T20:15:20.104Z,1005.53
2022-11-30T20:20:20.033Z,1005.54
2022-11-30T20:25:19.985Z,1005.54
2022-11-30T20:30:19.933Z,1005.53
2022-11-30T20:35:19.914Z,1005.60
2022-11-30T20:40:19.816Z,1005.57
2022-11-30T20:45:19.764Z,1005.59
2022-11-30T20:50:19.710Z,1005.64
2022-11-30T20:55:19.675Z,1005.67
2022-11-30T21:00:19.604Z,1005.55
2022-11-30T21:05:19.552Z,1005.54
2022-11-30T21:10:19.499Z,1005.56
2022-11-30T21:15:19.469Z,1005.51
2022-11-30T21:20:19.394Z,1005.56
2022-11-30T21:25:19.336Z,1005.61
2022-11-30T21:30:19.283Z,1005.68
2022-11-30T21:35:19.254Z,1005.66
2022-11-30T21:40:19.173Z,1005.70
2022-11-30T21:45:19.123Z,1005.67
2022-11-30T21:50:22.984Z,1005.61
2022-11-30T21:55:20.041Z,1005.64
2022-11-30T22:00:18.959Z,1005.65
2022-11-30T22:05:18.913Z,1005.66
2022-11-30T22:10:18.870Z,1005.60
2022-11-30T22:15:18.826Z,1005.58
2022-11-30T22:20:18.754Z,1005.49
2022-11-30T22:25:18.702Z,1005.58
2022-11-30T22:30:18.646Z,1005.58
2022-11-30T22:35:18.608Z,1005.58
2022-11-30T22:40:18.534Z,1005.52
2022-11-30T22:45:18.501Z,1005.58
2022-11-30T22:50:18.467Z,1005.65
2022-11-30T22:55:18.526Z,1005.64
2022-11-30T23:00:18.323Z,1005.69
2022-11-30T23:05:18.269Z,1005.62
2022-11-30T23:10:18.217Z,1005.61
2022-11-30T23:15:18.189Z,1005.62
2022-11-30T23:20:25.145Z,1005.58
2022-11-30T23:25:18.056Z,1005.60
2022-11-30T23:30:17.998Z,1005.56
2022-11-30T23:35:17.976Z,1005.49
2022-11-30T23:40:17.898Z,1005.55
2022-11-30T23:45:17.841Z,1005.63
2022-11-30T23:50:17.824Z,1005.56
2022-11-30T23:55:17.750Z,1005.53
